Ana Sayfa
METAR-TAF:

METAR-TAF

Havaalanları :

Lizbon, Portekiz

Portela Havalimanı

Enlem: 38-46N, Boylam: 009-08W, yükseklik: 114 m

Güncel hava durumu gözlemi

Rapor saat 02:00 UTC de 13 dakika önce yapıldı.
Rüzgar değişken yönden 7 kt ve 17 kt'a kadar ani rüzgarlar
Sıcaklık 13°C
Nem 82%
Basınç 1017 hPa
Görüş mesafesi 10 km veya daha fazla
1500 m altında bulut yok ve kümülonimbus yok

METAR: LPPT 260200Z VRB07G17KT CAVOK 13/10 Q1017

Saat: 03:13 (02:13 UTC)

Tahmin

Rapor saat 23:00 UTC de 3 saat ve 13 dakika önce yapıldı.
Ayın 26'si saat 00 UTC'den ayın 27'si saat 06 UTC'ye kadar geçerli Tahmin
Rüzgar kuzey/kuzeybatıdan 12 kt
Görüş mesafesi 10 km veya daha fazla
1500 m altında bulut yok ve kümülonimbus yok
Geçici
ayın 26'si saat 00 UTC'den ayın 26'si saat 06 UTC'ye kadar
Rüzgar kuzey/kuzeybatıdan 17 kt ve 27 kt'a kadar ani rüzgarlar

TAF: LPPT 252300Z 2600/2706 34012KT CAVOK TEMPO 2600/2606 33017G27KT

4.000'den fazla havaalanı için hava durumu gözlemleri ve tahminleri (METAR ve TAF raporları).

Kullanılabilir istasyonlar harita üzerinde sarı ve kırmızı noktalarla gösterilir.

İstasyonun adını görmek için fareyi noktanın üzerinde gezdirin.

Sonrasında hava gözlem ve tahminlerini görmek için tıklayın.

Haritayı değiştirmek için: yaklaştırmak için siyah artı işaretli yeşil düğmeye ve uzaklaştırmak için de eksi işaretli düğmeye hızla tıklayın; bitişik haritalar için yeşil okları kullanın.


METAR-TAF: